Time;durP1;ratioP1;P1;durP2;ratioP2;P2;SDS_P1;SDS_P2;PMS_P1;PMS_P2;Temp;Humidity;BMP_temperature;BMP_pressure;BME280_temperature;BME280_humidity;BME280_pressure;Samples;Min_cycle;Max_cycle;Signal;HPM_P1;HPM_P2
2024/01/13 00:00:21;;;;;;;18.10;8.07;;;;;;;;;;5053906;28;20199;-63
2024/01/13 00:02:48;;;;;;;20.67;9.02;;;;;;;;;;5053780;28;20194;-63
2024/01/13 00:05:15;;;;;;;16.83;7.80;;;;;;;;;;5053685;28;20273;-63
2024/01/13 00:07:42;;;;;;;11.73;6.78;;;;;;;;;;5053241;28;20216;-63
2024/01/13 00:10:10;;;;;;;13.45;7.88;;;;;;;;;;5053754;28;20190;-63
2024/01/13 00:12:37;;;;;;;18.08;8.10;;;;;;;;;;5053657;28;20218;-63
2024/01/13 00:15:04;;;;;;;14.75;7.78;;;;;;;;;;5053571;28;20252;-63
2024/01/13 00:17:31;;;;;;;15.20;8.38;;;;;;;;;;5053550;28;20193;-63
2024/01/13 00:19:58;;;;;;;13.07;8.60;;;;;;;;;;5053224;28;20189;-63
2024/01/13 00:22:25;;;;;;;14.98;7.93;;;;;;;;;;5053644;28;20265;-63
2024/01/13 00:24:52;;;;;;;19.85;7.78;;;;;;;;;;5053323;28;20653;-63
2024/01/13 00:27:20;;;;;;;15.18;7.40;;;;;;;;;;5053415;28;20272;-63
2024/01/13 00:29:47;;;;;;;13.35;8.15;;;;;;;;;;5053367;28;20664;-63
2024/01/13 00:32:14;;;;;;;19.45;8.15;;;;;;;;;;5053152;28;20558;-63
2024/01/13 00:34:41;;;;;;;13.60;7.95;;;;;;;;;;5053136;28;20190;-63
2024/01/13 00:37:08;;;;;;;11.48;7.75;;;;;;;;;;5053304;28;20190;-63
2024/01/13 00:39:35;;;;;;;13.38;5.93;;;;;;;;;;5053293;28;20622;-63
2024/01/13 00:42:02;;;;;;;15.95;7.70;;;;;;;;;;5053406;28;20237;-63
2024/01/13 00:44:30;;;;;;;21.85;8.10;;;;;;;;;;5053107;28;20231;-63
2024/01/13 00:46:57;;;;;;;15.05;8.15;;;;;;;;;;5052981;28;20285;-63
2024/01/13 00:49:24;;;;;;;17.10;6.95;;;;;;;;;;5052882;28;20272;-63
2024/01/13 00:51:51;;;;;;;17.73;6.30;;;;;;;;;;5053379;28;20200;-63
2024/01/13 00:54:18;;;;;;;15.38;8.30;;;;;;;;;;5053011;28;20257;-63
2024/01/13 00:56:45;;;;;;;10.68;6.00;;;;;;;;;;5053106;28;20193;-63
2024/01/13 00:59:12;;;;;;;9.68;7.50;;;;;;;;;;5053011;28;20277;-63
2024/01/13 01:01:40;;;;;;;12.27;6.78;;;;;;;;;;5052714;28;20281;-63
2024/01/13 01:04:07;;;;;;;11.88;6.00;;;;;;;;;;5052684;28;20189;-63
2024/01/13 01:06:34;;;;;;;10.73;6.68;;;;;;;;;;5052935;28;20231;-63
2024/01/13 01:09:01;;;;;;;17.00;7.35;;;;;;;;;;5052743;28;20198;-63
2024/01/13 01:11:28;;;;;;;10.00;6.55;;;;;;;;;;5052798;28;20193;-63
2024/01/13 01:13:55;;;;;;;9.63;6.10;;;;;;;;;;5052658;28;20224;-63
2024/01/13 01:16:22;;;;;;;13.57;6.82;;;;;;;;;;5052617;28;20616;-63
2024/01/13 01:18:52;;;;;;;13.45;7.07;;;;;;;;;;5053076;28;20200;-63
2024/01/13 01:21:19;;;;;;;15.18;6.47;;;;;;;;;;5056259;28;20308;-63
2024/01/13 01:23:46;;;;;;;11.30;6.10;;;;;;;;;;5056636;28;20185;-63
2024/01/13 01:26:13;;;;;;;16.02;5.90;;;;;;;;;;5056741;28;20196;-63
2024/01/13 01:28:40;;;;;;;17.17;5.88;;;;;;;;;;5056657;28;20194;-63
2024/01/13 01:31:07;;;;;;;13.73;6.47;;;;;;;;;;5056447;28;20204;-63
2024/01/13 01:33:34;;;;;;;12.30;6.15;;;;;;;;;;5056664;28;20218;-63
2024/01/13 01:36:02;;;;;;;9.27;6.07;;;;;;;;;;5056590;28;20186;-63
2024/01/13 01:38:29;;;;;;;11.43;6.30;;;;;;;;;;5056508;28;20216;-63
2024/01/13 01:40:56;;;;;;;8.55;5.10;;;;;;;;;;5056416;28;20337;-63
2024/01/13 01:43:23;;;;;;;14.35;6.75;;;;;;;;;;5056312;28;20564;-63
2024/01/13 01:45:52;;;;;;;11.73;5.40;;;;;;;;;;5056529;28;20549;-63
2024/01/13 01:48:19;;;;;;;11.88;5.78;;;;;;;;;;5056620;28;20185;-63
2024/01/13 01:50:46;;;;;;;8.05;4.88;;;;;;;;;;5056383;28;20284;-63
2024/01/13 01:53:15;;;;;;;8.55;5.25;;;;;;;;;;5056138;28;20636;-63
2024/01/13 01:55:42;;;;;;;10.52;4.40;;;;;;;;;;5056162;28;20637;-63
2024/01/13 01:58:09;;;;;;;12.02;5.75;;;;;;;;;;5056102;28;20568;-63
2024/01/13 02:00:36;;;;;;;13.50;4.95;;;;;;;;;;5056266;28;20645;-63
2024/01/13 02:03:03;;;;;;;9.15;5.30;;;;;;;;;;5056151;28;20280;-63
2024/01/13 02:05:30;;;;;;;8.15;5.22;;;;;;;;;;5056035;28;20273;-63
2024/01/13 02:07:56;;;;;;;11.73;4.85;;;;;;;;;;5055970;28;20228;-63
2024/01/13 02:10:24;;;;;;;10.90;5.13;;;;;;;;;;5055846;28;20190;-63
2024/01/13 02:12:51;;;;;;;12.07;4.50;;;;;;;;;;5056211;28;20588;-63
2024/01/13 02:15:18;;;;;;;8.77;4.57;;;;;;;;;;5056046;28;20198;-63
2024/01/13 02:17:45;;;;;;;10.95;5.15;;;;;;;;;;5055909;28;20198;-63
2024/01/13 02:20:12;;;;;;;7.10;3.78;;;;;;;;;;5055597;28;20312;-63
2024/01/13 02:22:40;;;;;;;8.73;3.72;;;;;;;;;;5055717;28;20200;-63
2024/01/13 02:25:08;;;;;;;6.25;4.50;;;;;;;;;;5055551;28;20196;-63
2024/01/13 02:27:35;;;;;;;6.85;4.60;;;;;;;;;;5055812;28;20185;-63
2024/01/13 02:30:02;;;;;;;8.50;4.55;;;;;;;;;;5055616;28;20523;-63
2024/01/13 02:32:29;;;;;;;7.53;4.57;;;;;;;;;;5055311;28;20200;-63
2024/01/13 02:34:56;;;;;;;8.95;4.75;;;;;;;;;;5055477;28;20279;-63
2024/01/13 02:37:23;;;;;;;10.82;4.10;;;;;;;;;;5055450;28;20273;-63
2024/01/13 02:39:51;;;;;;;6.57;4.28;;;;;;;;;;5055245;28;20744;-63
2024/01/13 02:42:18;;;;;;;4.47;3.92;;;;;;;;;;5055438;28;20285;-63
2024/01/13 02:44:45;;;;;;;7.20;4.20;;;;;;;;;;5055471;28;20300;-63
2024/01/13 02:47:12;;;;;;;6.65;4.55;;;;;;;;;;5055291;28;20194;-63
2024/01/13 02:49:39;;;;;;;6.65;3.47;;;;;;;;;;5055211;28;20225;-63
2024/01/13 02:52:06;;;;;;;9.57;4.25;;;;;;;;;;5055244;28;20716;-63
2024/01/13 02:54:33;;;;;;;10.10;4.15;;;;;;;;;;5055166;28;20312;-63
2024/01/13 02:57:01;;;;;;;6.90;3.95;;;;;;;;;;5055199;28;20186;-63
2024/01/13 02:59:28;;;;;;;5.80;4.22;;;;;;;;;;5054822;28;20194;-63
2024/01/13 03:01:55;;;;;;;7.55;3.55;;;;;;;;;;5054995;28;20277;-63
2024/01/13 03:04:22;;;;;;;5.35;3.47;;;;;;;;;;5054867;28;20198;-63
2024/01/13 03:06:49;;;;;;;5.95;4.00;;;;;;;;;;5054740;28;20190;-63
2024/01/13 03:09:16;;;;;;;7.45;3.85;;;;;;;;;;5055015;28;20276;-63
2024/01/13 03:11:43;;;;;;;4.32;3.25;;;;;;;;;;5054843;28;20247;-63
2024/01/13 03:14:11;;;;;;;7.60;4.03;;;;;;;;;;5054942;28;20308;-63
2024/01/13 03:16:38;;;;;;;10.10;4.50;;;;;;;;;;5054638;28;20193;-63
2024/01/13 03:19:05;;;;;;;7.72;3.92;;;;;;;;;;5054603;28;20189;-63
2024/01/13 03:21:32;;;;;;;8.70;4.90;;;;;;;;;;5054462;28;20562;-63
2024/01/13 03:23:59;;;;;;;8.80;4.07;;;;;;;;;;5054630;28;20288;-63
2024/01/13 03:26:26;;;;;;;4.53;3.70;;;;;;;;;;5054578;28;20190;-63
2024/01/13 03:28:53;;;;;;;5.05;3.95;;;;;;;;;;5054506;28;20276;-63
2024/01/13 03:31:21;;;;;;;7.10;4.45;;;;;;;;;;5054453;28;20709;-63
2024/01/13 03:33:48;;;;;;;4.85;3.38;;;;;;;;;;5054142;28;20309;-63
2024/01/13 03:36:15;;;;;;;5.78;3.85;;;;;;;;;;5054446;28;20194;-63
2024/01/13 03:38:42;;;;;;;9.05;3.70;;;;;;;;;;5054393;28;20277;-63
2024/01/13 03:41:09;;;;;;;4.35;3.58;;;;;;;;;;5054385;28;20190;-63
2024/01/13 03:43:36;;;;;;;3.92;3.50;;;;;;;;;;5053429;28;20732;-63
2024/01/13 03:46:03;;;;;;;5.78;3.92;;;;;;;;;;5054044;28;20200;-63
2024/01/13 03:48:32;;;;;;;9.02;4.88;;;;;;;;;;5054006;28;20242;-63
2024/01/13 03:50:59;;;;;;;5.53;3.80;;;;;;;;;;5054149;28;20189;-63
2024/01/13 03:53:28;;;;;;;4.28;3.88;;;;;;;;;;5054046;28;20224;-63
2024/01/13 03:55:54;;;;;;;4.00;3.70;;;;;;;;;;5054197;28;20190;-64
2024/01/13 03:58:21;;;;;;;6.15;5.65;;;;;;;;;;5053823;28;20204;-63
2024/01/13 04:00:48;;;;;;;9.68;5.75;;;;;;;;;;5053751;28;20272;-63
2024/01/13 04:03:15;;;;;;;8.02;5.60;;;;;;;;;;5053783;28;20236;-63
2024/01/13 04:05:44;;;;;;;5.45;4.70;;;;;;;;;;5053827;28;20216;-63
2024/01/13 04:08:11;;;;;;;5.88;4.68;;;;;;;;;;5054029;28;20197;-63
2024/01/13 04:10:38;;;;;;;5.97;4.70;;;;;;;;;;5053670;28;20190;-63
2024/01/13 04:13:05;;;;;;;5.88;3.85;;;;;;;;;;5053512;28;20186;-63
2024/01/13 04:15:33;;;;;;;7.32;4.50;;;;;;;;;;5053422;28;20193;-63
2024/01/13 04:18:00;;;;;;;6.40;4.55;;;;;;;;;;5053703;28;20196;-63
2024/01/13 04:20:27;;;;;;;5.78;4.47;;;;;;;;;;5053432;28;20760;-63
2024/01/13 04:22:55;;;;;;;4.68;3.55;;;;;;;;;;5053550;28;20280;-63
2024/01/13 04:25:22;;;;;;;5.43;4.45;;;;;;;;;;5053374;28;20197;-63
2024/01/13 04:27:50;;;;;;;5.00;4.25;;;;;;;;;;5053348;28;20194;-63
2024/01/13 04:30:17;;;;;;;6.40;4.68;;;;;;;;;;5053491;28;20284;-63
2024/01/13 04:32:44;;;;;;;5.30;4.47;;;;;;;;;;5053217;28;20233;-63
2024/01/13 04:35:11;;;;;;;5.53;4.65;;;;;;;;;;5053308;28;20758;-63
2024/01/13 04:37:38;;;;;;;6.85;4.75;;;;;;;;;;5053264;28;20200;-63
2024/01/13 04:40:08;;;;;;;6.78;4.38;;;;;;;;;;5053133;28;20186;-63
2024/01/13 04:42:35;;;;;;;4.30;3.95;;;;;;;;;;5053387;28;20277;-63
2024/01/13 04:45:02;;;;;;;5.20;3.92;;;;;;;;;;5053206;28;20186;-63
2024/01/13 04:47:29;;;;;;;4.90;4.05;;;;;;;;;;5053204;28;20197;-63
2024/01/13 04:49:56;;;;;;;5.65;4.10;;;;;;;;;;5053024;28;20281;-63
2024/01/13 04:52:24;;;;;;;8.23;4.97;;;;;;;;;;5053004;28;20228;-63
2024/01/13 04:54:51;;;;;;;5.28;4.78;;;;;;;;;;5051919;28;20224;-63
2024/01/13 04:57:19;;;;;;;5.35;4.40;;;;;;;;;;5052721;28;20733;-63
2024/01/13 04:59:46;;;;;;;4.28;3.83;;;;;;;;;;5052853;28;20232;-63
2024/01/13 05:02:13;;;;;;;5.22;4.53;;;;;;;;;;5052873;28;20186;-63
2024/01/13 05:04:40;;;;;;;7.38;5.20;;;;;;;;;;5052910;28;20277;-63
2024/01/13 05:07:07;;;;;;;5.05;4.15;;;;;;;;;;5052892;28;20217;-63
2024/01/13 05:09:34;;;;;;;7.32;4.47;;;;;;;;;;5052758;28;20236;-63
2024/01/13 05:12:01;;;;;;;6.13;4.78;;;;;;;;;;5052947;28;20224;-63
2024/01/13 05:14:30;;;;;;;4.78;4.15;;;;;;;;;;5052744;28;20222;-63
2024/01/13 05:16:57;;;;;;;5.57;4.97;;;;;;;;;;5052785;28;20285;-63
2024/01/13 05:19:24;;;;;;;7.00;4.43;;;;;;;;;;5052800;28;20236;-63
2024/01/13 05:21:51;;;;;;;6.50;4.30;;;;;;;;;;5052669;28;20249;-63
2024/01/13 05:24:18;;;;;;;4.88;4.30;;;;;;;;;;5052560;28;20247;-63
2024/01/13 05:26:45;;;;;;;5.65;3.90;;;;;;;;;;5052794;28;20651;-63
2024/01/13 05:29:12;;;;;;;4.45;4.05;;;;;;;;;;5052725;28;20202;-63
2024/01/13 05:31:40;;;;;;;5.70;5.20;;;;;;;;;;5052612;28;20278;-63
2024/01/13 05:34:07;;;;;;;5.10;4.60;;;;;;;;;;5052955;28;20663;-63
2024/01/13 05:36:34;;;;;;;4.25;3.85;;;;;;;;;;5052576;28;20277;-63
2024/01/13 05:39:01;;;;;;;4.85;4.35;;;;;;;;;;5052427;28;20186;-63
2024/01/13 05:41:28;;;;;;;6.65;4.85;;;;;;;;;;5052903;28;20276;-63
2024/01/13 05:43:55;;;;;;;5.50;5.00;;;;;;;;;;5052609;28;20193;-63
2024/01/13 05:46:22;;;;;;;6.55;5.10;;;;;;;;;;5052462;28;20557;-63
2024/01/13 05:48:50;;;;;;;5.65;4.97;;;;;;;;;;5052446;28;20221;-63
2024/01/13 05:51:17;;;;;;;5.68;5.18;;;;;;;;;;5052352;28;20194;-63
2024/01/13 05:53:44;;;;;;;5.40;4.65;;;;;;;;;;5052511;28;20281;-63
2024/01/13 05:56:11;;;;;;;4.72;4.32;;;;;;;;;;5052457;28;20296;-63
2024/01/13 05:58:39;;;;;;;4.93;4.40;;;;;;;;;;5052659;28;20281;-63
2024/01/13 06:01:06;;;;;;;7.38;4.10;;;;;;;;;;5052335;28;20252;-63
2024/01/13 06:03:33;;;;;;;7.10;5.40;;;;;;;;;;5052294;28;20194;-63
2024/01/13 06:06:02;;;;;;;6.30;4.93;;;;;;;;;;5053539;28;20197;-63
2024/01/13 06:08:29;;;;;;;6.70;4.88;;;;;;;;;;5056112;28;20561;-63
2024/01/13 06:10:56;;;;;;;5.28;4.78;;;;;;;;;;5055999;28;20190;-63
2024/01/13 06:13:23;;;;;;;6.03;4.65;;;;;;;;;;5055911;28;20297;-63
2024/01/13 06:15:50;;;;;;;7.32;5.22;;;;;;;;;;5055693;28;20304;-63
2024/01/13 06:18:17;;;;;;;6.20;5.20;;;;;;;;;;5055769;28;20225;-63
2024/01/13 06:20:44;;;;;;;7.40;5.00;;;;;;;;;;5055457;28;20222;-63
2024/01/13 06:23:12;;;;;;;6.97;6.28;;;;;;;;;;5055841;28;20217;-63
2024/01/13 06:25:39;;;;;;;6.32;5.70;;;;;;;;;;5055714;28;20284;-63
2024/01/13 06:28:06;;;;;;;7.97;5.72;;;;;;;;;;5055635;28;20277;-63
2024/01/13 06:30:33;;;;;;;8.23;6.30;;;;;;;;;;5055521;28;20190;-63
2024/01/13 06:33:01;;;;;;;8.77;6.30;;;;;;;;;;5055429;28;20190;-63
2024/01/13 06:35:28;;;;;;;9.40;6.45;;;;;;;;;;5055242;28;20304;-63
2024/01/13 06:37:55;;;;;;;8.15;5.60;;;;;;;;;;5055571;28;20194;-63
2024/01/13 06:40:23;;;;;;;6.15;5.22;;;;;;;;;;5055448;28;20594;-63
2024/01/13 06:42:50;;;;;;;6.10;5.25;;;;;;;;;;5055330;28;20192;-63
2024/01/13 06:45:17;;;;;;;8.55;6.53;;;;;;;;;;5055243;28;20200;-63
2024/01/13 06:47:44;;;;;;;10.48;5.68;;;;;;;;;;5055098;28;20300;-63
2024/01/13 06:50:11;;;;;;;7.80;5.80;;;;;;;;;;5055167;28;20276;-63
2024/01/13 06:52:38;;;;;;;7.45;5.88;;;;;;;;;;5055086;28;20733;-63
2024/01/13 06:55:05;;;;;;;7.30;5.90;;;;;;;;;;5055137;28;20357;-63
2024/01/13 06:57:34;;;;;;;7.30;6.15;;;;;;;;;;5055129;28;20612;-63
2024/01/13 07:00:01;;;;;;;9.55;6.35;;;;;;;;;;5054892;28;20329;-63
2024/01/13 07:02:27;;;;;;;5.95;5.35;;;;;;;;;;5054857;28;20280;-63
2024/01/13 07:04:54;;;;;;;7.05;5.22;;;;;;;;;;5055084;28;20281;-63
2024/01/13 07:07:21;;;;;;;5.32;4.82;;;;;;;;;;5054957;28;20190;-63
2024/01/13 07:09:48;;;;;;;5.68;4.65;;;;;;;;;;5054928;28;20323;-63
2024/01/13 07:12:14;;;;;;;5.40;4.90;;;;;;;;;;5054692;28;20645;-63
2024/01/13 07:14:43;;;;;;;6.10;4.78;;;;;;;;;;5054520;28;20301;-63
2024/01/13 07:17:10;;;;;;;5.30;4.80;;;;;;;;;;5053781;28;20216;-63
2024/01/13 07:19:39;;;;;;;5.13;4.65;;;;;;;;;;5054905;28;20284;-63
2024/01/13 07:22:06;;;;;;;5.05;4.65;;;;;;;;;;5054529;28;20276;-63
2024/01/13 07:24:33;;;;;;;4.97;4.50;;;;;;;;;;5054520;28;20671;-63
2024/01/13 07:27:00;;;;;;;3.85;3.55;;;;;;;;;;5054752;28;20190;-63
2024/01/13 07:29:27;;;;;;;4.15;3.72;;;;;;;;;;5054298;28;20285;-63
2024/01/13 07:31:55;;;;;;;5.15;4.65;;;;;;;;;;5054480;28;20276;-63
2024/01/13 07:34:22;;;;;;;5.18;4.28;;;;;;;;;;5054287;28;20673;-63
2024/01/13 07:36:49;;;;;;;5.75;3.80;;;;;;;;;;5054317;28;20281;-63
2024/01/13 07:39:16;;;;;;;4.55;3.83;;;;;;;;;;5054190;28;20222;-63
2024/01/13 07:41:44;;;;;;;5.57;4.05;;;;;;;;;;5054097;28;20284;-63
2024/01/13 07:44:11;;;;;;;4.80;4.40;;;;;;;;;;5053904;28;20247;-63
2024/01/13 07:46:41;;;;;;;4.32;3.80;;;;;;;;;;5054046;28;20684;-63
2024/01/13 07:49:09;;;;;;;3.67;3.38;;;;;;;;;;5054163;28;20200;-63
2024/01/13 07:51:36;;;;;;;3.30;3.10;;;;;;;;;;5054291;28;20190;-63
2024/01/13 07:54:03;;;;;;;3.63;3.20;;;;;;;;;;5053817;28;20712;-63
2024/01/13 07:56:30;;;;;;;3.22;3.03;;;;;;;;;;5053730;28;20727;-63
2024/01/13 07:58:57;;;;;;;3.05;2.75;;;;;;;;;;5053696;28;20716;-63
2024/01/13 08:01:24;;;;;;;3.33;3.13;;;;;;;;;;5053854;28;20186;-63
2024/01/13 08:03:51;;;;;;;4.35;3.42;;;;;;;;;;5053736;28;20192;-63
2024/01/13 08:06:19;;;;;;;3.15;2.85;;;;;;;;;;5053585;28;20281;-63
2024/01/13 08:08:46;;;;;;;3.40;2.88;;;;;;;;;;5053414;28;20280;-63
2024/01/13 08:11:13;;;;;;;3.17;2.88;;;;;;;;;;5053778;28;20197;-63
2024/01/13 08:13:40;;;;;;;4.25;3.45;;;;;;;;;;5053643;28;20522;-63
2024/01/13 08:16:09;;;;;;;3.42;3.05;;;;;;;;;;5053633;28;20763;-63
2024/01/13 08:18:36;;;;;;;3.90;2.75;;;;;;;;;;5053539;28;20194;-63
2024/01/13 08:21:03;;;;;;;3.35;3.05;;;;;;;;;;5053334;28;20613;-63
2024/01/13 08:23:31;;;;;;;3.50;3.20;;;;;;;;;;5053358;28;20198;-63
2024/01/13 08:25:58;;;;;;;4.05;3.65;;;;;;;;;;5053555;28;20646;-63
2024/01/13 08:28:25;;;;;;;3.60;3.30;;;;;;;;;;5053249;28;20760;-63
2024/01/13 08:30:52;;;;;;;3.40;2.88;;;;;;;;;;5053293;28;20281;-63
2024/01/13 08:33:19;;;;;;;3.85;2.97;;;;;;;;;;5053255;28;20189;-63
2024/01/13 08:35:46;;;;;;;3.45;3.17;;;;;;;;;;5052934;28;20239;-63
2024/01/13 08:38:13;;;;;;;3.95;3.65;;;;;;;;;;5053195;28;20197;-63
2024/01/13 08:40:42;;;;;;;2.75;2.55;;;;;;;;;;5053119;28;20281;-63
2024/01/13 08:43:09;;;;;;;2.60;2.40;;;;;;;;;;5053152;28;20288;-63
2024/01/13 08:45:36;;;;;;;2.63;2.42;;;;;;;;;;5052993;28;20190;-63
2024/01/13 08:48:03;;;;;;;2.65;2.50;;;;;;;;;;5053065;28;20545;-63
2024/01/13 08:50:31;;;;;;;2.47;2.30;;;;;;;;;;5052841;28;20283;-63
2024/01/13 08:52:58;;;;;;;3.03;2.75;;;;;;;;;;5053091;28;20194;-63
2024/01/13 08:55:25;;;;;;;3.35;2.72;;;;;;;;;;5052917;28;20312;-63
2024/01/13 08:57:54;;;;;;;2.25;2.05;;;;;;;;;;5053111;28;20280;-63
2024/01/13 09:00:22;;;;;;;1.73;1.63;;;;;;;;;;5052874;28;20284;-63
2024/01/13 09:02:49;;;;;;;2.30;2.20;;;;;;;;;;5052855;28;20194;-63
2024/01/13 09:05:16;;;;;;;2.50;2.30;;;;;;;;;;5052558;28;20736;-63
2024/01/13 09:07:43;;;;;;;2.90;2.70;;;;;;;;;;5053052;28;20276;-63
2024/01/13 09:10:10;;;;;;;2.80;2.60;;;;;;;;;;5052813;28;20196;-63
2024/01/13 09:12:37;;;;;;;2.40;2.20;;;;;;;;;;5052665;28;20296;-63
2024/01/13 09:15:09;;;;;;;2.88;2.53;;;;;;;;;;5052444;28;20672;-63
2024/01/13 09:17:37;;;;;;;2.40;2.22;;;;;;;;;;5052651;28;20272;-63
2024/01/13 09:20:05;;;;;;;2.75;2.55;;;;;;;;;;5052378;28;20193;-63
2024/01/13 09:22:31;;;;;;;2.70;2.45;;;;;;;;;;5052775;28;20194;-63
2024/01/13 09:24:59;;;;;;;2.60;2.40;;;;;;;;;;5052586;28;20233;-63
2024/01/13 09:27:26;;;;;;;2.58;2.38;;;;;;;;;;5052585;28;20194;-63
2024/01/13 09:29:53;;;;;;;3.22;2.40;;;;;;;;;;5052451;28;20604;-63
2024/01/13 09:32:22;;;;;;;2.80;2.60;;;;;;;;;;5052579;28;20624;-63
2024/01/13 09:34:49;;;;;;;3.65;2.15;;;;;;;;;;5052602;28;20289;-63
2024/01/13 09:37:16;;;;;;;3.00;2.80;;;;;;;;;;5052401;28;20649;-62
2024/01/13 09:39:43;;;;;;;2.50;2.30;;;;;;;;;;5052583;28;20281;-62
2024/01/13 09:42:10;;;;;;;4.22;2.50;;;;;;;;;;5055751;28;20189;-62
2024/01/13 09:44:37;;;;;;;4.25;2.30;;;;;;;;;;5056220;28;20280;-62
2024/01/13 09:47:04;;;;;;;1.90;1.80;;;;;;;;;;5056257;28;20194;-62
2024/01/13 09:49:33;;;;;;;2.20;2.00;;;;;;;;;;5056440;28;20196;-62
2024/01/13 09:52:00;;;;;;;1.80;1.70;;;;;;;;;;5056162;28;20668;-62
2024/01/13 09:54:28;;;;;;;1.75;1.65;;;;;;;;;;5056272;28;20626;-62
2024/01/13 09:56:55;;;;;;;1.70;1.60;;;;;;;;;;5056172;28;20264;-62
2024/01/13 09:59:25;;;;;;;2.35;2.10;;;;;;;;;;5055999;28;20547;-62
2024/01/13 10:01:52;;;;;;;2.10;2.00;;;;;;;;;;5056313;28;20196;-62
2024/01/13 10:04:20;;;;;;;1.90;1.80;;;;;;;;;;5056132;28;20194;-62
2024/01/13 10:06:49;;;;;;;2.63;2.42;;;;;;;;;;5056083;28;20544;-62
2024/01/13 10:09:16;;;;;;;1.85;1.75;;;;;;;;;;5055968;28;20623;-62
2024/01/13 10:11:43;;;;;;;2.95;1.80;;;;;;;;;;5055842;28;20194;-63
2024/01/13 10:14:14;;;;;;;2.40;2.20;;;;;;;;;;5056118;28;20285;-62
2024/01/13 10:16:41;;;;;;;3.83;2.20;;;;;;;;;;5055944;28;20308;-62
2024/01/13 10:19:09;;;;;;;1.70;1.60;;;;;;;;;;5055851;28;20201;-62
2024/01/13 10:21:37;;;;;;;1.92;1.83;;;;;;;;;;5055638;28;20249;-62
2024/01/13 10:24:06;;;;;;;2.00;1.90;;;;;;;;;;5055548;28;20185;-62
2024/01/13 10:26:33;;;;;;;2.30;2.10;;;;;;;;;;5055633;28;20216;-62
2024/01/13 10:29:00;;;;;;;1.70;1.60;;;;;;;;;;5055475;28;20676;-62
2024/01/13 10:31:27;;;;;;;1.90;1.80;;;;;;;;;;5055584;28;20605;-62
2024/01/13 10:33:54;;;;;;;2.10;2.00;;;;;;;;;;5055564;28;20186;-62
2024/01/13 10:36:22;;;;;;;1.55;1.45;;;;;;;;;;5055374;28;20218;-62
2024/01/13 10:38:49;;;;;;;1.73;1.63;;;;;;;;;;5055326;28;20198;-62
2024/01/13 10:41:18;;;;;;;2.05;1.95;;;;;;;;;;5055162;28;20267;-62
2024/01/13 10:43:45;;;;;;;1.95;1.85;;;;;;;;;;5055302;28;20277;-62
2024/01/13 10:46:13;;;;;;;4.53;2.17;;;;;;;;;;5055243;28;20285;-62
2024/01/13 10:48:43;;;;;;;1.95;1.80;;;;;;;;;;5055219;28;20281;-62
2024/01/13 10:51:15;;;;;;;1.83;1.73;;;;;;;;;;5055117;28;20296;-62
2024/01/13 10:53:42;;;;;;;2.42;2.05;;;;;;;;;;5054971;28;20712;-62
2024/01/13 10:56:10;;;;;;;2.10;2.00;;;;;;;;;;5055066;28;20214;-62
2024/01/13 10:58:38;;;;;;;3.80;2.50;;;;;;;;;;5055399;28;20285;-62
2024/01/13 11:01:06;;;;;;;2.92;2.63;;;;;;;;;;5054842;28;20626;-62
2024/01/13 11:03:36;;;;;;;1.90;1.80;;;;;;;;;;5054931;28;20216;-62
2024/01/13 11:06:03;;;;;;;2.90;2.63;;;;;;;;;;5054768;28;20737;-63
2024/01/13 11:08:30;;;;;;;1.88;1.77;;;;;;;;;;5055025;28;20590;-62
2024/01/13 11:10:58;;;;;;;2.80;2.15;;;;;;;;;;5054936;28;20277;-62
2024/01/13 11:13:26;;;;;;;3.80;2.95;;;;;;;;;;5054787;28;20277;-62
2024/01/13 11:16:04;;;;;;;1.95;1.85;;;;;;;;;;5054619;28;20236;-62
2024/01/13 11:18:35;;;;;;;2.63;2.45;;;;;;;;;;5054588;28;20198;-62
2024/01/13 11:21:02;;;;;;;3.13;2.90;;;;;;;;;;5054557;28;20308;-62
2024/01/13 11:23:29;;;;;;;5.18;4.18;;;;;;;;;;5054574;28;20281;-62
2024/01/13 11:25:56;;;;;;;6.28;5.18;;;;;;;;;;5054558;28;20201;-62
2024/01/13 11:28:23;;;;;;;8.45;6.63;;;;;;;;;;5054411;28;20200;-63
2024/01/13 11:30:50;;;;;;;3.67;3.38;;;;;;;;;;5054222;28;20193;-62
2024/01/13 11:33:19;;;;;;;3.58;2.85;;;;;;;;;;5054504;28;20221;-62
2024/01/13 11:35:47;;;;;;;2.42;2.22;;;;;;;;;;5054371;28;20300;-62
2024/01/13 11:38:15;;;;;;;2.00;1.85;;;;;;;;;;5054257;28;20220;-62
2024/01/13 11:40:49;;;;;;;1.90;1.80;;;;;;;;;;5054176;28;20197;-62
2024/01/13 11:43:19;;;;;;;2.50;2.30;;;;;;;;;;5054070;28;20228;-62
2024/01/13 11:45:50;;;;;;;3.17;2.97;;;;;;;;;;5054017;28;20200;-62
2024/01/13 11:48:37;;;;;;;2.83;2.63;;;;;;;;;;5054219;28;20193;-62
2024/01/13 11:51:08;;;;;;;2.90;2.70;;;;;;;;;;5054064;28;20550;-63
2024/01/13 11:53:35;;;;;;;2.35;2.25;;;;;;;;;;5053962;28;20601;-62
2024/01/13 11:56:03;;;;;;;2.25;2.15;;;;;;;;;;5053795;28;20241;-62
2024/01/13 11:58:30;;;;;;;2.58;2.38;;;;;;;;;;5054001;28;20235;-62
2024/01/13 12:00:57;;;;;;;2.35;2.25;;;;;;;;;;5053809;28;20190;-63
2024/01/13 12:03:24;;;;;;;1.80;1.70;;;;;;;;;;5053372;28;20277;-62
2024/01/13 12:05:53;;;;;;;2.35;2.25;;;;;;;;;;5053906;28;20722;-62
2024/01/13 12:08:20;;;;;;;2.45;2.35;;;;;;;;;;5053973;28;20205;-62
2024/01/13 12:10:49;;;;;;;2.53;2.42;;;;;;;;;;5053614;28;20806;-62
2024/01/13 12:13:16;;;;;;;3.13;2.92;;;;;;;;;;5053729;28;20221;-62
2024/01/13 12:15:46;;;;;;;7.85;4.72;;;;;;;;;;5053594;28;20193;-62
2024/01/13 12:18:18;;;;;;;5.65;5.10;;;;;;;;;;5053470;28;20189;-62
2024/01/13 12:20:45;;;;;;;3.03;2.83;;;;;;;;;;5053270;28;20222;-62
2024/01/13 12:23:14;;;;;;;1.98;1.88;;;;;;;;;;5053397;28;20277;-62
2024/01/13 12:25:41;;;;;;;2.17;2.08;;;;;;;;;;5053477;28;20192;-62
2024/01/13 12:28:08;;;;;;;1.88;1.77;;;;;;;;;;5053484;28;20190;-62
2024/01/13 12:30:36;;;;;;;4.22;2.38;;;;;;;;;;5053343;28;20194;-63
2024/01/13 12:33:04;;;;;;;2.58;2.38;;;;;;;;;;5053224;28;20194;-62
2024/01/13 12:35:31;;;;;;;1.90;1.80;;;;;;;;;;5053320;28;20588;-62
2024/01/13 12:37:58;;;;;;;4.35;3.08;;;;;;;;;;5053199;28;20186;-62
2024/01/13 12:40:26;;;;;;;3.22;2.55;;;;;;;;;;5053304;28;20285;-62
2024/01/13 12:42:53;;;;;;;2.85;2.65;;;;;;;;;;5053230;28;20725;-62
2024/01/13 12:45:20;;;;;;;2.05;1.95;;;;;;;;;;5053097;28;20197;-62
2024/01/13 12:47:52;;;;;;;2.50;2.30;;;;;;;;;;5053222;28;20284;-62
2024/01/13 12:50:19;;;;;;;1.73;1.63;;;;;;;;;;5052867;28;20662;-62
2024/01/13 12:52:46;;;;;;;1.55;1.45;;;;;;;;;;5053136;28;20197;-62
2024/01/13 12:55:13;;;;;;;1.98;1.88;;;;;;;;;;5052990;28;20645;-62
2024/01/13 12:57:42;;;;;;;1.88;1.77;;;;;;;;;;5052896;28;20260;-62
2024/01/13 13:00:09;;;;;;;1.75;1.65;;;;;;;;;;5052827;28;20285;-62
2024/01/13 13:02:37;;;;;;;4.30;4.00;;;;;;;;;;5052758;28;20197;-62
2024/01/13 13:05:04;;;;;;;2.47;2.00;;;;;;;;;;5052903;28;20285;-62
2024/01/13 13:07:31;;;;;;;2.42;2.33;;;;;;;;;;5052674;28;20665;-63
2024/01/13 13:09:58;;;;;;;4.85;3.00;;;;;;;;;;5052866;28;20194;-62
2024/01/13 13:12:25;;;;;;;6.35;4.78;;;;;;;;;;5052708;28;20281;-62
2024/01/13 13:14:54;;;;;;;5.45;4.53;;;;;;;;;;5052760;28;20190;-62
2024/01/13 13:17:21;;;;;;;3.90;3.53;;;;;;;;;;5056451;28;20634;-62
2024/01/13 13:19:48;;;;;;;3.10;2.90;;;;;;;;;;5056865;28;20205;-62
2024/01/13 13:22:14;;;;;;;3.15;2.85;;;;;;;;;;5056947;28;20205;-63
2024/01/13 13:24:43;;;;;;;2.85;2.65;;;;;;;;;;5056693;28;20650;-62
2024/01/13 13:27:10;;;;;;;3.25;2.85;;;;;;;;;;5056668;28;20196;-62
2024/01/13 13:29:37;;;;;;;3.05;2.85;;;;;;;;;;5056578;28;20649;-62
2024/01/13 13:32:05;;;;;;;4.65;4.15;;;;;;;;;;5056761;28;20277;-62
2024/01/13 13:34:33;;;;;;;4.07;3.80;;;;;;;;;;5056708;28;20277;-62
2024/01/13 13:37:00;;;;;;;6.90;6.20;;;;;;;;;;5056481;28;20220;-62
2024/01/13 13:39:27;;;;;;;3.75;3.50;;;;;;;;;;5056458;28;20266;-62
2024/01/13 13:41:54;;;;;;;3.20;3.00;;;;;;;;;;5056370;28;20649;-63
2024/01/13 13:44:21;;;;;;;3.53;3.33;;;;;;;;;;5056591;28;20236;-63
2024/01/13 13:46:48;;;;;;;4.05;3.75;;;;;;;;;;5056821;28;20231;-63
2024/01/13 13:49:16;;;;;;;4.63;4.20;;;;;;;;;;5056369;28;20553;-62
2024/01/13 13:51:43;;;;;;;6.03;4.50;;;;;;;;;;5056548;28;20186;-63
2024/01/13 13:54:10;;;;;;;16.52;12.20;;;;;;;;;;5056402;28;20221;-63
2024/01/13 13:56:37;;;;;;;6.47;5.85;;;;;;;;;;5056129;28;20217;-62
2024/01/13 13:59:04;;;;;;;5.40;4.90;;;;;;;;;;5056027;28;20204;-62
2024/01/13 14:01:31;;;;;;;4.95;4.47;;;;;;;;;;5056278;28;20624;-63
2024/01/13 14:03:58;;;;;;;3.60;3.40;;;;;;;;;;5056089;28;20277;-63
2024/01/13 14:06:27;;;;;;;8.10;6.20;;;;;;;;;;5055999;28;20190;-63
2024/01/13 14:08:53;;;;;;;8.57;6.65;;;;;;;;;;5056050;28;20252;-63
2024/01/13 14:11:20;;;;;;;9.77;8.85;;;;;;;;;;5055841;28;20726;-63
2024/01/13 14:13:48;;;;;;;4.70;4.40;;;;;;;;;;5056057;28;20221;-62
2024/01/13 14:16:15;;;;;;;5.13;4.72;;;;;;;;;;5055854;28;20198;-62
2024/01/13 14:18:47;;;;;;;4.35;4.05;;;;;;;;;;5056174;28;20229;-63
2024/01/13 14:21:15;;;;;;;4.82;4.43;;;;;;;;;;5055510;28;20693;-63
2024/01/13 14:23:43;;;;;;;4.85;4.43;;;;;;;;;;5055739;28;20247;-63
2024/01/13 14:26:11;;;;;;;6.68;6.18;;;;;;;;;;5055147;28;20225;-63
2024/01/13 14:28:38;;;;;;;6.38;5.20;;;;;;;;;;5055971;28;20190;-63
2024/01/13 14:31:06;;;;;;;5.80;5.40;;;;;;;;;;5055613;28;20531;-63
2024/01/13 14:33:33;;;;;;;7.22;6.00;;;;;;;;;;5055394;28;20204;-62
2024/01/13 14:36:00;;;;;;;6.43;5.95;;;;;;;;;;5055440;28;20189;-62
2024/01/13 14:38:28;;;;;;;7.68;6.53;;;;;;;;;;5055283;28;20571;-62
2024/01/13 14:40:56;;;;;;;6.90;6.30;;;;;;;;;;5055531;28;20190;-62